sensor_id;sensor_type;location;lat;lon;timestamp;P1;durP1;ratioP1;P2;durP2;ratioP2
49842;SDS011;55559;48.898;9.184;2023-08-17T00:01:56;11.60;;;6.30;;
49842;SDS011;55559;48.898;9.184;2023-08-17T00:04:23;7.43;;;6.03;;
49842;SDS011;55559;48.898;9.184;2023-08-17T00:06:49;10.50;;;6.75;;
49842;SDS011;55559;48.898;9.184;2023-08-17T00:09:16;8.68;;;5.15;;
49842;SDS011;55559;48.898;9.184;2023-08-17T00:11:43;9.73;;;6.63;;
49842;SDS011;55559;48.898;9.184;2023-08-17T00:14:13;9.27;;;6.65;;
49842;SDS011;55559;48.898;9.184;2023-08-17T00:16:44;10.70;;;6.95;;
49842;SDS011;55559;48.898;9.184;2023-08-17T00:19:12;13.23;;;7.72;;
49842;SDS011;55559;48.898;9.184;2023-08-17T00:21:40;8.45;;;6.78;;
49842;SDS011;55559;48.898;9.184;2023-08-17T00:24:07;11.43;;;7.53;;
49842;SDS011;55559;48.898;9.184;2023-08-17T00:26:37;8.18;;;7.00;;
49842;SDS011;55559;48.898;9.184;2023-08-17T00:29:05;16.00;;;7.70;;
49842;SDS011;55559;48.898;9.184;2023-08-17T00:31:35;11.65;;;8.85;;
49842;SDS011;55559;48.898;9.184;2023-08-17T00:34:07;9.20;;;8.13;;
49842;SDS011;55559;48.898;9.184;2023-08-17T00:36:38;19.13;;;8.15;;
49842;SDS011;55559;48.898;9.184;2023-08-17T00:39:19;13.75;;;10.85;;
49842;SDS011;55559;48.898;9.184;2023-08-17T00:41:56;17.40;;;12.57;;
49842;SDS011;55559;48.898;9.184;2023-08-17T00:44:26;17.35;;;12.65;;
49842;SDS011;55559;48.898;9.184;2023-08-17T00:47:08;19.65;;;13.73;;
49842;SDS011;55559;48.898;9.184;2023-08-17T00:49:43;15.43;;;12.38;;
49842;SDS011;55559;48.898;9.184;2023-08-17T00:52:13;15.07;;;12.30;;
49842;SDS011;55559;48.898;9.184;2023-08-17T00:54:47;15.85;;;12.95;;
49842;SDS011;55559;48.898;9.184;2023-08-17T00:57:20;16.58;;;12.77;;
49842;SDS011;55559;48.898;9.184;2023-08-17T00:59:48;16.08;;;12.30;;
49842;SDS011;55559;48.898;9.184;2023-08-17T01:02:19;16.55;;;11.07;;
49842;SDS011;55559;48.898;9.184;2023-08-17T01:04:49;11.77;;;10.68;;
49842;SDS011;55559;48.898;9.184;2023-08-17T01:07:33;15.75;;;10.80;;
49842;SDS011;55559;48.898;9.184;2023-08-17T01:10:07;15.73;;;11.10;;
49842;SDS011;55559;48.898;9.184;2023-08-17T01:12:36;17.75;;;12.10;;
49842;SDS011;55559;48.898;9.184;2023-08-17T01:15:05;17.92;;;12.23;;
49842;SDS011;55559;48.898;9.184;2023-08-17T01:17:38;15.35;;;12.75;;
49842;SDS011;55559;48.898;9.184;2023-08-17T01:20:10;20.02;;;12.93;;
49842;SDS011;55559;48.898;9.184;2023-08-17T01:22:38;15.02;;;13.00;;
49842;SDS011;55559;48.898;9.184;2023-08-17T01:25:08;14.82;;;12.32;;
49842;SDS011;55559;48.898;9.184;2023-08-17T01:27:36;15.02;;;11.80;;
49842;SDS011;55559;48.898;9.184;2023-08-17T01:30:03;17.65;;;11.65;;
49842;SDS011;55559;48.898;9.184;2023-08-17T01:32:32;18.27;;;12.23;;
49842;SDS011;55559;48.898;9.184;2023-08-17T01:35:01;16.48;;;11.57;;
49842;SDS011;55559;48.898;9.184;2023-08-17T01:37:29;17.02;;;10.57;;
49842;SDS011;55559;48.898;9.184;2023-08-17T01:39:58;15.48;;;10.57;;
49842;SDS011;55559;48.898;9.184;2023-08-17T01:42:26;20.45;;;10.90;;
49842;SDS011;55559;48.898;9.184;2023-08-17T01:44:54;12.07;;;9.80;;
49842;SDS011;55559;48.898;9.184;2023-08-17T01:47:20;19.00;;;10.82;;
49842;SDS011;55559;48.898;9.184;2023-08-17T01:49:47;14.18;;;9.70;;
49842;SDS011;55559;48.898;9.184;2023-08-17T01:52:14;11.57;;;8.77;;
49842;SDS011;55559;48.898;9.184;2023-08-17T01:54:40;13.57;;;9.25;;
49842;SDS011;55559;48.898;9.184;2023-08-17T01:57:07;16.10;;;8.23;;
49842;SDS011;55559;48.898;9.184;2023-08-17T01:59:35;17.45;;;8.45;;
49842;SDS011;55559;48.898;9.184;2023-08-17T02:02:02;13.95;;;7.80;;
49842;SDS011;55559;48.898;9.184;2023-08-17T02:04:28;11.10;;;7.82;;
49842;SDS011;55559;48.898;9.184;2023-08-17T02:06:55;12.80;;;7.10;;
49842;SDS011;55559;48.898;9.184;2023-08-17T02:09:21;10.80;;;6.85;;
49842;SDS011;55559;48.898;9.184;2023-08-17T02:11:48;11.43;;;6.65;;
49842;SDS011;55559;48.898;9.184;2023-08-17T02:14:14;13.25;;;6.90;;
49842;SDS011;55559;48.898;9.184;2023-08-17T02:16:44;10.48;;;6.35;;
49842;SDS011;55559;48.898;9.184;2023-08-17T02:19:11;13.25;;;6.93;;
49842;SDS011;55559;48.898;9.184;2023-08-17T02:21:38;10.77;;;5.90;;
49842;SDS011;55559;48.898;9.184;2023-08-17T02:24:07;9.95;;;6.68;;
49842;SDS011;55559;48.898;9.184;2023-08-17T02:26:34;9.25;;;7.20;;
49842;SDS011;55559;48.898;9.184;2023-08-17T02:29:01;11.90;;;7.20;;
49842;SDS011;55559;48.898;9.184;2023-08-17T02:31:27;11.35;;;7.25;;
49842;SDS011;55559;48.898;9.184;2023-08-17T02:33:57;9.23;;;7.88;;
49842;SDS011;55559;48.898;9.184;2023-08-17T02:36:30;11.35;;;6.97;;
49842;SDS011;55559;48.898;9.184;2023-08-17T02:38:56;9.82;;;8.00;;
49842;SDS011;55559;48.898;9.184;2023-08-17T02:41:23;13.43;;;8.98;;
49842;SDS011;55559;48.898;9.184;2023-08-17T02:43:49;16.27;;;9.90;;
49842;SDS011;55559;48.898;9.184;2023-08-17T02:46:18;16.42;;;11.30;;
49842;SDS011;55559;48.898;9.184;2023-08-17T02:48:44;14.68;;;9.88;;
49842;SDS011;55559;48.898;9.184;2023-08-17T02:51:12;17.52;;;8.45;;
49842;SDS011;55559;48.898;9.184;2023-08-17T02:53:39;17.55;;;8.43;;
49842;SDS011;55559;48.898;9.184;2023-08-17T02:56:06;16.67;;;9.05;;
49842;SDS011;55559;48.898;9.184;2023-08-17T02:58:35;13.25;;;8.20;;
49842;SDS011;55559;48.898;9.184;2023-08-17T03:01:02;13.93;;;8.73;;
49842;SDS011;55559;48.898;9.184;2023-08-17T03:03:28;16.27;;;7.75;;
49842;SDS011;55559;48.898;9.184;2023-08-17T03:05:55;14.93;;;7.82;;
49842;SDS011;55559;48.898;9.184;2023-08-17T03:08:24;17.17;;;8.82;;
49842;SDS011;55559;48.898;9.184;2023-08-17T03:10:52;15.60;;;8.68;;
49842;SDS011;55559;48.898;9.184;2023-08-17T03:13:19;15.55;;;9.25;;
49842;SDS011;55559;48.898;9.184;2023-08-17T03:15:46;22.70;;;10.07;;
49842;SDS011;55559;48.898;9.184;2023-08-17T03:18:14;22.50;;;10.65;;
49842;SDS011;55559;48.898;9.184;2023-08-17T03:20:41;21.83;;;10.25;;
49842;SDS011;55559;48.898;9.184;2023-08-17T03:23:09;22.25;;;10.88;;
49842;SDS011;55559;48.898;9.184;2023-08-17T03:25:37;18.55;;;10.27;;
49842;SDS011;55559;48.898;9.184;2023-08-17T03:28:04;26.15;;;10.90;;
49842;SDS011;55559;48.898;9.184;2023-08-17T03:34:03;19.85;;;10.95;;
49842;SDS011;55559;48.898;9.184;2023-08-17T03:36:32;18.45;;;10.30;;
49842;SDS011;55559;48.898;9.184;2023-08-17T03:38:58;23.70;;;10.45;;
49842;SDS011;55559;48.898;9.184;2023-08-17T03:41:26;25.77;;;12.25;;
49842;SDS011;55559;48.898;9.184;2023-08-17T03:43:53;26.58;;;13.63;;
49842;SDS011;55559;48.898;9.184;2023-08-17T03:46:20;33.97;;;13.57;;
49842;SDS011;55559;48.898;9.184;2023-08-17T03:48:46;39.63;;;14.30;;
49842;SDS011;55559;48.898;9.184;2023-08-17T03:51:13;36.65;;;15.32;;
49842;SDS011;55559;48.898;9.184;2023-08-17T03:53:39;35.03;;;14.90;;
49842;SDS011;55559;48.898;9.184;2023-08-17T03:56:06;39.67;;;16.00;;
49842;SDS011;55559;48.898;9.184;2023-08-17T03:58:34;29.15;;;13.23;;
49842;SDS011;55559;48.898;9.184;2023-08-17T04:01:01;21.90;;;13.85;;
49842;SDS011;55559;48.898;9.184;2023-08-17T04:03:29;36.50;;;14.38;;
49842;SDS011;55559;48.898;9.184;2023-08-17T04:05:56;44.30;;;17.60;;
49842;SDS011;55559;48.898;9.184;2023-08-17T04:08:23;36.03;;;16.67;;
49842;SDS011;55559;48.898;9.184;2023-08-17T04:10:49;39.72;;;18.02;;
49842;SDS011;55559;48.898;9.184;2023-08-17T04:13:16;44.47;;;17.98;;
49842;SDS011;55559;48.898;9.184;2023-08-17T04:15:44;37.30;;;17.33;;
49842;SDS011;55559;48.898;9.184;2023-08-17T04:18:11;35.13;;;17.33;;
49842;SDS011;55559;48.898;9.184;2023-08-17T04:20:37;37.92;;;16.70;;
49842;SDS011;55559;48.898;9.184;2023-08-17T04:23:04;40.20;;;17.75;;
49842;SDS011;55559;48.898;9.184;2023-08-17T04:25:31;33.88;;;16.17;;
49842;SDS011;55559;48.898;9.184;2023-08-17T04:27:58;39.70;;;18.83;;
49842;SDS011;55559;48.898;9.184;2023-08-17T04:30:25;38.40;;;19.33;;
49842;SDS011;55559;48.898;9.184;2023-08-17T04:32:59;45.25;;;20.15;;
49842;SDS011;55559;48.898;9.184;2023-08-17T04:35:26;32.13;;;18.50;;
49842;SDS011;55559;48.898;9.184;2023-08-17T04:37:53;37.00;;;18.52;;
49842;SDS011;55559;48.898;9.184;2023-08-17T04:40:20;41.90;;;20.65;;
49842;SDS011;55559;48.898;9.184;2023-08-17T04:42:49;34.08;;;19.38;;
49842;SDS011;55559;48.898;9.184;2023-08-17T04:45:16;36.42;;;20.33;;
49842;SDS011;55559;48.898;9.184;2023-08-17T04:47:45;43.03;;;19.67;;
49842;SDS011;55559;48.898;9.184;2023-08-17T04:50:13;42.70;;;20.58;;
49842;SDS011;55559;48.898;9.184;2023-08-17T04:52:42;41.97;;;18.23;;
49842;SDS011;55559;48.898;9.184;2023-08-17T04:55:08;40.10;;;19.08;;
49842;SDS011;55559;48.898;9.184;2023-08-17T04:57:35;37.00;;;19.38;;
49842;SDS011;55559;48.898;9.184;2023-08-17T05:00:02;34.75;;;17.75;;
49842;SDS011;55559;48.898;9.184;2023-08-17T05:02:29;33.00;;;17.05;;
49842;SDS011;55559;48.898;9.184;2023-08-17T05:04:57;33.13;;;16.15;;
49842;SDS011;55559;48.898;9.184;2023-08-17T05:07:25;32.58;;;16.35;;
49842;SDS011;55559;48.898;9.184;2023-08-17T05:09:53;30.40;;;16.98;;
49842;SDS011;55559;48.898;9.184;2023-08-17T05:12:20;38.10;;;17.25;;
49842;SDS011;55559;48.898;9.184;2023-08-17T05:14:47;34.05;;;17.00;;
49842;SDS011;55559;48.898;9.184;2023-08-17T05:17:14;34.05;;;16.52;;
49842;SDS011;55559;48.898;9.184;2023-08-17T05:19:44;40.95;;;16.92;;
49842;SDS011;55559;48.898;9.184;2023-08-17T05:22:11;40.20;;;16.67;;
49842;SDS011;55559;48.898;9.184;2023-08-17T05:24:40;30.42;;;14.98;;
49842;SDS011;55559;48.898;9.184;2023-08-17T05:27:06;28.77;;;14.40;;
49842;SDS011;55559;48.898;9.184;2023-08-17T05:29:35;33.63;;;15.25;;
49842;SDS011;55559;48.898;9.184;2023-08-17T05:32:01;30.45;;;13.77;;
49842;SDS011;55559;48.898;9.184;2023-08-17T05:34:28;33.30;;;15.10;;
49842;SDS011;55559;48.898;9.184;2023-08-17T05:36:56;29.88;;;15.75;;
49842;SDS011;55559;48.898;9.184;2023-08-17T05:39:22;26.45;;;15.43;;
49842;SDS011;55559;48.898;9.184;2023-08-17T05:41:50;30.98;;;16.70;;
49842;SDS011;55559;48.898;9.184;2023-08-17T05:44:17;28.80;;;14.98;;
49842;SDS011;55559;48.898;9.184;2023-08-17T05:46:43;23.92;;;15.07;;
49842;SDS011;55559;48.898;9.184;2023-08-17T05:49:11;26.55;;;14.35;;
49842;SDS011;55559;48.898;9.184;2023-08-17T05:51:37;32.95;;;17.30;;
49842;SDS011;55559;48.898;9.184;2023-08-17T05:54:04;23.40;;;15.30;;
49842;SDS011;55559;48.898;9.184;2023-08-17T05:56:31;33.53;;;16.65;;
49842;SDS011;55559;48.898;9.184;2023-08-17T05:58:59;29.17;;;17.20;;
49842;SDS011;55559;48.898;9.184;2023-08-17T06:01:25;25.73;;;15.95;;
49842;SDS011;55559;48.898;9.184;2023-08-17T06:03:52;24.33;;;16.88;;
49842;SDS011;55559;48.898;9.184;2023-08-17T06:06:19;28.58;;;16.25;;
49842;SDS011;55559;48.898;9.184;2023-08-17T06:08:45;26.65;;;17.10;;
49842;SDS011;55559;48.898;9.184;2023-08-17T06:11:12;24.17;;;14.77;;
49842;SDS011;55559;48.898;9.184;2023-08-17T06:13:39;30.73;;;16.88;;
49842;SDS011;55559;48.898;9.184;2023-08-17T06:16:06;30.60;;;15.93;;
49842;SDS011;55559;48.898;9.184;2023-08-17T06:18:33;26.55;;;16.30;;
49842;SDS011;55559;48.898;9.184;2023-08-17T06:20:59;27.02;;;16.40;;
49842;SDS011;55559;48.898;9.184;2023-08-17T06:23:26;27.98;;;15.77;;
49842;SDS011;55559;48.898;9.184;2023-08-17T06:25:55;22.45;;;16.42;;
49842;SDS011;55559;48.898;9.184;2023-08-17T06:28:22;22.35;;;15.13;;
49842;SDS011;55559;48.898;9.184;2023-08-17T06:30:51;25.50;;;16.48;;
49842;SDS011;55559;48.898;9.184;2023-08-17T06:33:19;25.80;;;15.30;;
49842;SDS011;55559;48.898;9.184;2023-08-17T06:35:45;19.50;;;14.52;;
49842;SDS011;55559;48.898;9.184;2023-08-17T06:38:12;24.80;;;15.40;;
49842;SDS011;55559;48.898;9.184;2023-08-17T06:40:38;22.02;;;14.68;;
49842;SDS011;55559;48.898;9.184;2023-08-17T06:43:05;21.05;;;14.05;;
49842;SDS011;55559;48.898;9.184;2023-08-17T06:45:31;16.98;;;12.52;;
49842;SDS011;55559;48.898;9.184;2023-08-17T06:47:58;21.27;;;13.68;;
49842;SDS011;55559;48.898;9.184;2023-08-17T06:50:26;17.67;;;13.73;;
49842;SDS011;55559;48.898;9.184;2023-08-17T06:52:53;20.10;;;13.82;;
49842;SDS011;55559;48.898;9.184;2023-08-17T06:55:20;20.83;;;12.77;;
49842;SDS011;55559;48.898;9.184;2023-08-17T06:57:47;29.00;;;14.27;;
49842;SDS011;55559;48.898;9.184;2023-08-17T07:00:15;19.63;;;13.73;;
49842;SDS011;55559;48.898;9.184;2023-08-17T07:02:43;20.60;;;13.60;;
49842;SDS011;55559;48.898;9.184;2023-08-17T07:05:10;26.50;;;13.98;;
49842;SDS011;55559;48.898;9.184;2023-08-17T07:07:38;22.75;;;13.98;;
49842;SDS011;55559;48.898;9.184;2023-08-17T07:10:05;19.80;;;13.98;;
49842;SDS011;55559;48.898;9.184;2023-08-17T07:12:33;21.17;;;13.13;;
49842;SDS011;55559;48.898;9.184;2023-08-17T07:14:59;16.83;;;13.50;;
49842;SDS011;55559;48.898;9.184;2023-08-17T07:17:26;27.38;;;13.20;;
49842;SDS011;55559;48.898;9.184;2023-08-17T07:19:53;26.55;;;13.30;;
49842;SDS011;55559;48.898;9.184;2023-08-17T07:22:20;19.38;;;11.90;;
49842;SDS011;55559;48.898;9.184;2023-08-17T07:24:48;24.10;;;13.48;;
49842;SDS011;55559;48.898;9.184;2023-08-17T07:27:14;23.40;;;12.68;;
49842;SDS011;55559;48.898;9.184;2023-08-17T07:29:41;19.02;;;11.82;;
49842;SDS011;55559;48.898;9.184;2023-08-17T07:32:08;17.90;;;11.18;;
49842;SDS011;55559;48.898;9.184;2023-08-17T07:34:35;21.05;;;12.32;;
49842;SDS011;55559;48.898;9.184;2023-08-17T07:37:03;24.85;;;12.27;;
49842;SDS011;55559;48.898;9.184;2023-08-17T07:39:30;27.55;;;12.20;;
49842;SDS011;55559;48.898;9.184;2023-08-17T07:41:58;18.45;;;10.35;;
49842;SDS011;55559;48.898;9.184;2023-08-17T07:44:25;19.80;;;9.20;;
49842;SDS011;55559;48.898;9.184;2023-08-17T07:46:53;16.00;;;9.27;;
49842;SDS011;55559;48.898;9.184;2023-08-17T07:49:20;20.52;;;10.15;;
49842;SDS011;55559;48.898;9.184;2023-08-17T07:51:48;14.10;;;9.98;;
49842;SDS011;55559;48.898;9.184;2023-08-17T07:54:15;13.63;;;7.90;;
49842;SDS011;55559;48.898;9.184;2023-08-17T07:56:41;14.93;;;7.97;;
49842;SDS011;55559;48.898;9.184;2023-08-17T07:59:09;13.07;;;7.97;;
49842;SDS011;55559;48.898;9.184;2023-08-17T08:01:36;15.55;;;8.27;;
49842;SDS011;55559;48.898;9.184;2023-08-17T08:04:05;9.98;;;7.70;;
49842;SDS011;55559;48.898;9.184;2023-08-17T08:06:32;10.57;;;8.05;;
49842;SDS011;55559;48.898;9.184;2023-08-17T08:08:59;9.55;;;7.35;;
49842;SDS011;55559;48.898;9.184;2023-08-17T08:11:26;10.55;;;7.18;;
49842;SDS011;55559;48.898;9.184;2023-08-17T08:13:56;10.30;;;6.78;;
49842;SDS011;55559;48.898;9.184;2023-08-17T08:16:30;14.75;;;7.95;;
49842;SDS011;55559;48.898;9.184;2023-08-17T08:18:56;11.98;;;6.93;;
49842;SDS011;55559;48.898;9.184;2023-08-17T08:21:26;14.30;;;7.65;;
49842;SDS011;55559;48.898;9.184;2023-08-17T08:23:53;13.55;;;8.15;;
49842;SDS011;55559;48.898;9.184;2023-08-17T08:26:23;13.02;;;8.15;;
49842;SDS011;55559;48.898;9.184;2023-08-17T08:28:50;16.65;;;9.13;;
49842;SDS011;55559;48.898;9.184;2023-08-17T08:31:16;14.57;;;9.45;;
49842;SDS011;55559;48.898;9.184;2023-08-17T08:33:44;16.20;;;9.93;;
49842;SDS011;55559;48.898;9.184;2023-08-17T08:36:11;9.95;;;9.00;;
49842;SDS011;55559;48.898;9.184;2023-08-17T08:38:38;10.73;;;8.63;;
49842;SDS011;55559;48.898;9.184;2023-08-17T08:41:04;16.20;;;9.25;;
49842;SDS011;55559;48.898;9.184;2023-08-17T08:43:31;13.25;;;7.25;;
49842;SDS011;55559;48.898;9.184;2023-08-17T08:45:58;14.25;;;8.45;;
49842;SDS011;55559;48.898;9.184;2023-08-17T08:48:26;12.93;;;8.18;;
49842;SDS011;55559;48.898;9.184;2023-08-17T08:50:54;11.90;;;7.22;;
49842;SDS011;55559;48.898;9.184;2023-08-17T08:53:24;17.40;;;8.35;;
49842;SDS011;55559;48.898;9.184;2023-08-17T08:55:54;14.30;;;8.13;;
49842;SDS011;55559;48.898;9.184;2023-08-17T08:58:21;15.20;;;8.00;;
49842;SDS011;55559;48.898;9.184;2023-08-17T09:00:48;15.80;;;8.30;;
49842;SDS011;55559;48.898;9.184;2023-08-17T09:03:15;20.98;;;8.38;;
49842;SDS011;55559;48.898;9.184;2023-08-17T09:05:44;18.70;;;8.45;;
49842;SDS011;55559;48.898;9.184;2023-08-17T09:08:12;10.38;;;8.43;;
49842;SDS011;55559;48.898;9.184;2023-08-17T09:10:39;21.98;;;8.77;;
49842;SDS011;55559;48.898;9.184;2023-08-17T09:13:07;14.85;;;7.90;;
49842;SDS011;55559;48.898;9.184;2023-08-17T09:15:33;15.00;;;9.90;;
49842;SDS011;55559;48.898;9.184;2023-08-17T09:18:00;15.48;;;7.97;;
49842;SDS011;55559;48.898;9.184;2023-08-17T09:23:13;19.65;;;8.95;;
49842;SDS011;55559;48.898;9.184;2023-08-17T09:25:41;17.42;;;8.98;;
49842;SDS011;55559;48.898;9.184;2023-08-17T09:28:08;15.45;;;8.20;;
49842;SDS011;55559;48.898;9.184;2023-08-17T09:33:20;18.85;;;9.30;;
49842;SDS011;55559;48.898;9.184;2023-08-17T09:35:50;11.70;;;9.02;;
49842;SDS011;55559;48.898;9.184;2023-08-17T09:38:18;17.65;;;8.00;;
49842;SDS011;55559;48.898;9.184;2023-08-17T09:40:45;15.75;;;9.23;;
49842;SDS011;55559;48.898;9.184;2023-08-17T09:43:12;10.40;;;7.15;;
49842;SDS011;55559;48.898;9.184;2023-08-17T09:45:40;10.88;;;7.03;;
49842;SDS011;55559;48.898;9.184;2023-08-17T09:48:07;10.93;;;7.43;;
49842;SDS011;55559;48.898;9.184;2023-08-17T09:50:33;11.60;;;9.57;;
49842;SDS011;55559;48.898;9.184;2023-08-17T09:53:01;13.05;;;8.32;;
49842;SDS011;55559;48.898;9.184;2023-08-17T09:55:29;13.88;;;6.50;;
49842;SDS011;55559;48.898;9.184;2023-08-17T09:57:56;16.35;;;7.50;;
49842;SDS011;55559;48.898;9.184;2023-08-17T10:00:35;8.25;;;5.55;;
49842;SDS011;55559;48.898;9.184;2023-08-17T10:03:02;10.73;;;6.97;;
49842;SDS011;55559;48.898;9.184;2023-08-17T10:05:30;20.33;;;8.05;;
49842;SDS011;55559;48.898;9.184;2023-08-17T10:07:58;12.82;;;6.95;;
49842;SDS011;55559;48.898;9.184;2023-08-17T10:10:26;7.28;;;5.90;;
49842;SDS011;55559;48.898;9.184;2023-08-17T10:12:56;9.45;;;6.88;;
49842;SDS011;55559;48.898;9.184;2023-08-17T10:15:29;16.50;;;7.30;;
49842;SDS011;55559;48.898;9.184;2023-08-17T10:17:58;11.25;;;6.05;;
49842;SDS011;55559;48.898;9.184;2023-08-17T10:20:26;15.82;;;8.57;;
49842;SDS011;55559;48.898;9.184;2023-08-17T10:22:56;12.90;;;8.82;;
49842;SDS011;55559;48.898;9.184;2023-08-17T10:25:28;12.60;;;8.30;;
49842;SDS011;55559;48.898;9.184;2023-08-17T10:27:57;18.10;;;9.35;;
49842;SDS011;55559;48.898;9.184;2023-08-17T10:30:25;15.05;;;7.10;;
49842;SDS011;55559;48.898;9.184;2023-08-17T10:32:56;11.13;;;7.43;;
49842;SDS011;55559;48.898;9.184;2023-08-17T10:35:23;15.77;;;7.43;;
49842;SDS011;55559;48.898;9.184;2023-08-17T10:37:50;11.43;;;6.10;;
49842;SDS011;55559;48.898;9.184;2023-08-17T10:40:17;13.70;;;6.97;;
49842;SDS011;55559;48.898;9.184;2023-08-17T10:42:44;9.25;;;6.65;;
49842;SDS011;55559;48.898;9.184;2023-08-17T10:45:27;12.15;;;7.85;;
49842;SDS011;55559;48.898;9.184;2023-08-17T10:50:40;16.65;;;7.50;;
49842;SDS011;55559;48.898;9.184;2023-08-17T10:53:08;13.38;;;6.50;;
49842;SDS011;55559;48.898;9.184;2023-08-17T10:55:36;11.13;;;6.07;;
49842;SDS011;55559;48.898;9.184;2023-08-17T10:58:03;13.00;;;6.85;;
49842;SDS011;55559;48.898;9.184;2023-08-17T11:00:33;14.95;;;6.25;;
49842;SDS011;55559;48.898;9.184;2023-08-17T11:03:03;15.88;;;6.15;;
49842;SDS011;55559;48.898;9.184;2023-08-17T11:05:36;8.80;;;5.60;;
49842;SDS011;55559;48.898;9.184;2023-08-17T11:08:03;13.27;;;8.68;;
49842;SDS011;55559;48.898;9.184;2023-08-17T11:10:29;12.05;;;7.53;;
49842;SDS011;55559;48.898;9.184;2023-08-17T11:12:56;16.88;;;8.95;;
49842;SDS011;55559;48.898;9.184;2023-08-17T11:18:27;14.93;;;9.55;;
49842;SDS011;55559;48.898;9.184;2023-08-17T11:20:54;9.05;;;7.45;;
49842;SDS011;55559;48.898;9.184;2023-08-17T11:23:41;10.05;;;6.05;;
49842;SDS011;55559;48.898;9.184;2023-08-17T11:26:08;16.35;;;8.65;;
49842;SDS011;55559;48.898;9.184;2023-08-17T11:28:37;11.27;;;8.90;;
49842;SDS011;55559;48.898;9.184;2023-08-17T11:31:07;10.73;;;7.63;;
49842;SDS011;55559;48.898;9.184;2023-08-17T11:33:38;13.85;;;7.53;;
49842;SDS011;55559;48.898;9.184;2023-08-17T11:36:07;11.30;;;5.53;;
49842;SDS011;55559;48.898;9.184;2023-08-17T11:38:35;13.32;;;7.20;;
49842;SDS011;55559;48.898;9.184;2023-08-17T11:41:03;11.30;;;6.40;;
49842;SDS011;55559;48.898;9.184;2023-08-17T11:43:30;16.27;;;5.72;;
49842;SDS011;55559;48.898;9.184;2023-08-17T11:45:56;12.02;;;5.65;;
49842;SDS011;55559;48.898;9.184;2023-08-17T11:48:23;10.52;;;4.55;;
49842;SDS011;55559;48.898;9.184;2023-08-17T11:50:55;7.93;;;4.95;;
49842;SDS011;55559;48.898;9.184;2023-08-17T11:53:23;8.80;;;5.07;;
49842;SDS011;55559;48.898;9.184;2023-08-17T11:55:50;6.55;;;5.05;;
49842;SDS011;55559;48.898;9.184;2023-08-17T11:58:16;6.60;;;4.57;;
49842;SDS011;55559;48.898;9.184;2023-08-17T12:00:43;4.22;;;3.45;;
49842;SDS011;55559;48.898;9.184;2023-08-17T12:03:20;5.18;;;4.35;;
49842;SDS011;55559;48.898;9.184;2023-08-17T12:05:47;4.97;;;3.30;;
49842;SDS011;55559;48.898;9.184;2023-08-17T12:08:15;8.05;;;3.60;;
49842;SDS011;55559;48.898;9.184;2023-08-17T12:10:42;5.53;;;3.92;;
49842;SDS011;55559;48.898;9.184;2023-08-17T12:13:11;6.22;;;2.95;;
49842;SDS011;55559;48.898;9.184;2023-08-17T12:15:37;9.15;;;2.58;;
49842;SDS011;55559;48.898;9.184;2023-08-17T12:18:05;6.50;;;2.03;;
49842;SDS011;55559;48.898;9.184;2023-08-17T12:20:32;5.57;;;1.55;;
49842;SDS011;55559;48.898;9.184;2023-08-17T12:23:01;4.10;;;1.90;;
49842;SDS011;55559;48.898;9.184;2023-08-17T12:25:29;5.38;;;2.03;;
49842;SDS011;55559;48.898;9.184;2023-08-17T12:27:57;3.85;;;1.80;;
49842;SDS011;55559;48.898;9.184;2023-08-17T12:30:25;4.43;;;1.77;;
49842;SDS011;55559;48.898;9.184;2023-08-17T12:32:52;5.72;;;2.13;;
49842;SDS011;55559;48.898;9.184;2023-08-17T12:35:18;5.22;;;1.45;;
49842;SDS011;55559;48.898;9.184;2023-08-17T12:37:46;8.38;;;1.38;;
49842;SDS011;55559;48.898;9.184;2023-08-17T12:40:13;2.75;;;1.40;;
49842;SDS011;55559;48.898;9.184;2023-08-17T12:42:41;2.20;;;1.10;;
49842;SDS011;55559;48.898;9.184;2023-08-17T12:45:08;2.03;;;1.55;;
49842;SDS011;55559;48.898;9.184;2023-08-17T12:47:35;2.47;;;1.25;;
49842;SDS011;55559;48.898;9.184;2023-08-17T12:50:02;3.70;;;1.30;;
49842;SDS011;55559;48.898;9.184;2023-08-17T12:52:29;2.65;;;1.17;;
49842;SDS011;55559;48.898;9.184;2023-08-17T12:54:55;3.08;;;1.13;;
49842;SDS011;55559;48.898;9.184;2023-08-17T12:57:22;3.00;;;1.10;;
49842;SDS011;55559;48.898;9.184;2023-08-17T12:59:50;5.28;;;1.38;;
49842;SDS011;55559;48.898;9.184;2023-08-17T13:02:16;8.02;;;1.48;;
49842;SDS011;55559;48.898;9.184;2023-08-17T13:04:43;9.00;;;1.40;;
49842;SDS011;55559;48.898;9.184;2023-08-17T13:07:10;4.38;;;1.77;;
49842;SDS011;55559;48.898;9.184;2023-08-17T13:09:36;4.38;;;1.67;;
49842;SDS011;55559;48.898;9.184;2023-08-17T13:12:03;4.03;;;1.95;;
49842;SDS011;55559;48.898;9.184;2023-08-17T13:14:30;4.68;;;1.85;;
49842;SDS011;55559;48.898;9.184;2023-08-17T13:27:21;4.10;;;2.55;;
49842;SDS011;55559;48.898;9.184;2023-08-17T13:30:17;7.32;;;3.17;;
49842;SDS011;55559;48.898;9.184;2023-08-17T13:33:25;8.35;;;3.35;;
49842;SDS011;55559;48.898;9.184;2023-08-17T13:36:31;9.05;;;4.47;;
49842;SDS011;55559;48.898;9.184;2023-08-17T13:39:12;15.20;;;5.13;;
49842;SDS011;55559;48.898;9.184;2023-08-17T13:41:49;3.97;;;3.58;;
49842;SDS011;55559;48.898;9.184;2023-08-17T13:44:54;4.93;;;3.67;;
49842;SDS011;55559;48.898;9.184;2023-08-17T13:48:10;8.13;;;4.05;;
49842;SDS011;55559;48.898;9.184;2023-08-17T13:51:17;8.68;;;4.43;;
49842;SDS011;55559;48.898;9.184;2023-08-17T13:54:17;4.90;;;4.38;;
49842;SDS011;55559;48.898;9.184;2023-08-17T13:57:06;8.57;;;6.07;;
49842;SDS011;55559;48.898;9.184;2023-08-17T13:59:59;7.18;;;6.45;;
49842;SDS011;55559;48.898;9.184;2023-08-17T14:05:43;8.80;;;6.35;;
49842;SDS011;55559;48.898;9.184;2023-08-17T14:08:23;11.38;;;6.80;;
49842;SDS011;55559;48.898;9.184;2023-08-17T14:10:50;6.88;;;6.18;;
49842;SDS011;55559;48.898;9.184;2023-08-17T14:13:54;8.82;;;6.30;;
49842;SDS011;55559;48.898;9.184;2023-08-17T14:16:37;9.65;;;5.63;;
49842;SDS011;55559;48.898;9.184;2023-08-17T14:19:03;11.27;;;6.18;;
49842;SDS011;55559;48.898;9.184;2023-08-17T14:21:34;6.53;;;5.88;;
49842;SDS011;55559;48.898;9.184;2023-08-17T14:24:18;5.70;;;5.13;;
49842;SDS011;55559;48.898;9.184;2023-08-17T14:26:44;10.73;;;6.47;;
49842;SDS011;55559;48.898;9.184;2023-08-17T14:29:11;8.20;;;5.97;;
49842;SDS011;55559;48.898;9.184;2023-08-17T14:31:39;9.00;;;5.60;;
49842;SDS011;55559;48.898;9.184;2023-08-17T14:34:06;10.93;;;5.82;;
49842;SDS011;55559;48.898;9.184;2023-08-17T14:36:32;11.63;;;5.72;;
49842;SDS011;55559;48.898;9.184;2023-08-17T14:38:59;6.60;;;5.65;;
49842;SDS011;55559;48.898;9.184;2023-08-17T14:41:26;7.32;;;6.18;;
49842;SDS011;55559;48.898;9.184;2023-08-17T14:43:57;6.47;;;5.72;;
49842;SDS011;55559;48.898;9.184;2023-08-17T14:46:24;9.95;;;4.75;;
49842;SDS011;55559;48.898;9.184;2023-08-17T14:48:52;8.88;;;4.68;;
49842;SDS011;55559;48.898;9.184;2023-08-17T14:51:18;5.80;;;5.07;;
49842;SDS011;55559;48.898;9.184;2023-08-17T14:53:45;5.40;;;4.75;;
49842;SDS011;55559;48.898;9.184;2023-08-17T14:56:12;6.80;;;4.78;;
49842;SDS011;55559;48.898;9.184;2023-08-17T14:58:38;10.02;;;4.22;;
49842;SDS011;55559;48.898;9.184;2023-08-17T15:01:05;8.25;;;4.68;;
49842;SDS011;55559;48.898;9.184;2023-08-17T15:03:31;6.20;;;4.55;;
49842;SDS011;55559;48.898;9.184;2023-08-17T15:05:59;7.03;;;4.22;;
49842;SDS011;55559;48.898;9.184;2023-08-17T15:08:26;7.75;;;5.25;;
49842;SDS011;55559;48.898;9.184;2023-08-17T15:10:52;4.85;;;4.05;;
49842;SDS011;55559;48.898;9.184;2023-08-17T15:13:19;6.32;;;4.60;;